sensor_id;sensor_type;location;lat;lon;timestamp;pressure;altitude;pressure_sealevel;temperature;humidity
54910;BME280;63189;51.240;9.964;2023-02-22T00:00:20;97898.94;;;7.50;100.00
54910;BME280;63189;51.240;9.964;2023-02-22T00:02:56;97891.13;;;7.50;100.00
54910;BME280;63189;51.240;9.964;2023-02-22T00:05:25;97891.13;;;7.50;100.00
54910;BME280;63189;51.240;9.964;2023-02-22T00:07:51;97893.75;;;7.50;100.00
54910;BME280;63189;51.240;9.964;2023-02-22T00:10:17;97891.22;;;7.47;100.00
54910;BME280;63189;51.240;9.964;2023-02-22T00:12:46;97877.38;;;7.46;100.00
54910;BME280;63189;51.240;9.964;2023-02-22T00:15:19;97882.59;;;7.45;100.00
54910;BME280;63189;51.240;9.964;2023-02-22T00:17:45;97885.19;;;7.45;100.00
54910;BME280;63189;51.240;9.964;2023-02-22T00:20:11;97877.53;;;7.39;100.00
54910;BME280;63189;51.240;9.964;2023-02-22T00:22:44;97876.72;;;7.37;100.00
54910;BME280;63189;51.240;9.964;2023-02-22T00:25:17;97876.72;;;7.37;100.00
54910;BME280;63189;51.240;9.964;2023-02-22T00:27:44;97879.34;;;7.35;100.00
54910;BME280;63189;51.240;9.964;2023-02-22T00:30:18;97869.06;;;7.31;100.00
54910;BME280;63189;51.240;9.964;2023-02-22T00:32:47;97873.38;;;7.32;100.00
54910;BME280;63189;51.240;9.964;2023-02-22T00:35:14;97875.13;;;7.30;100.00
54910;BME280;63189;51.240;9.964;2023-02-22T00:37:40;97870.88;;;7.26;100.00
54910;BME280;63189;51.240;9.964;2023-02-22T00:40:09;97864.78;;;7.27;100.00
54910;BME280;63189;51.240;9.964;2023-02-22T00:42:35;97866.50;;;7.28;100.00
54910;BME280;63189;51.240;9.964;2023-02-22T00:45:00;97858.75;;;7.26;100.00
54910;BME280;63189;51.240;9.964;2023-02-22T00:47:27;97867.34;;;7.28;100.00
54910;BME280;63189;51.240;9.964;2023-02-22T00:49:54;97876.88;;;7.28;100.00
54910;BME280;63189;51.240;9.964;2023-02-22T00:52:19;97861.34;;;7.26;100.00
54910;BME280;63189;51.240;9.964;2023-02-22T00:54:45;97868.22;;;7.29;100.00
54910;BME280;63189;51.240;9.964;2023-02-22T00:57:11;97864.75;;;7.30;100.00
54910;BME280;63189;51.240;9.964;2023-02-22T00:59:36;97860.44;;;7.29;100.00
54910;BME280;63189;51.240;9.964;2023-02-22T01:02:01;97860.44;;;7.30;100.00
54910;BME280;63189;51.240;9.964;2023-02-22T01:04:27;97855.31;;;7.26;100.00
54910;BME280;63189;51.240;9.964;2023-02-22T01:06:52;97864.75;;;7.30;100.00
54910;BME280;63189;51.240;9.964;2023-02-22T01:09:18;97868.22;;;7.29;100.00
54910;BME280;63189;51.240;9.964;2023-02-22T01:11:44;97858.75;;;7.26;100.00
54910;BME280;63189;51.240;9.964;2023-02-22T01:14:09;97848.44;;;7.23;100.00
54910;BME280;63189;51.240;9.964;2023-02-22T01:16:35;97851.03;;;7.23;100.00
54910;BME280;63189;51.240;9.964;2023-02-22T01:19:01;97851.06;;;7.21;100.00
54910;BME280;63189;51.240;9.964;2023-02-22T01:21:26;97847.66;;;7.19;100.00
54910;BME280;63189;51.240;9.964;2023-02-22T01:23:52;97840.75;;;7.18;100.00
54910;BME280;63189;51.240;9.964;2023-02-22T01:26:19;97848.53;;;7.20;100.00
54910;BME280;63189;51.240;9.964;2023-02-22T01:28:44;97835.63;;;7.15;100.00
54910;BME280;63189;51.240;9.964;2023-02-22T01:31:10;97839.88;;;7.18;100.00
54910;BME280;63189;51.240;9.964;2023-02-22T01:33:36;97845.88;;;7.21;100.00
54910;BME280;63189;51.240;9.964;2023-02-22T01:36:02;97840.72;;;7.21;100.00
54910;BME280;63189;51.240;9.964;2023-02-22T01:38:27;97832.09;;;7.19;100.00
54910;BME280;63189;51.240;9.964;2023-02-22T01:40:53;97829.47;;;7.21;100.00
54910;BME280;63189;51.240;9.964;2023-02-22T01:43:29;97830.38;;;7.20;100.00
54910;BME280;63189;51.240;9.964;2023-02-22T01:46:04;97831.19;;;7.22;100.00
54910;BME280;63189;51.240;9.964;2023-02-22T01:53:49;97820.84;;;7.19;100.00
54910;BME280;63189;51.240;9.964;2023-02-22T01:56:17;97821.66;;;7.22;100.00
54910;BME280;63189;51.240;9.964;2023-02-22T01:58:47;97818.25;;;7.20;100.00
54910;BME280;63189;51.240;9.964;2023-02-22T02:01:15;97819.16;;;7.19;100.00
54910;BME280;63189;51.240;9.964;2023-02-22T02:03:41;97816.59;;;7.16;100.00
54910;BME280;63189;51.240;9.964;2023-02-22T02:06:12;97815.72;;;7.16;100.00
54910;BME280;63189;51.240;9.964;2023-02-22T02:11:18;97809.63;;;7.18;100.00
54910;BME280;63189;51.240;9.964;2023-02-22T02:13:45;97806.19;;;7.19;100.00
54910;BME280;63189;51.240;9.964;2023-02-22T02:16:11;97807.94;;;7.16;100.00
54910;BME280;63189;51.240;9.964;2023-02-22T02:18:36;97807.13;;;7.14;100.00
54910;BME280;63189;51.240;9.964;2023-02-22T02:37:01;97802.09;;;7.06;100.00
54910;BME280;63189;51.240;9.964;2023-02-22T02:39:40;97802.06;;;7.09;100.00
54910;BME280;63189;51.240;9.964;2023-02-22T02:42:10;97795.94;;;7.12;100.00
54910;BME280;63189;51.240;9.964;2023-02-22T02:45:08;97795.97;;;7.10;100.00
54910;BME280;63189;51.240;9.964;2023-02-22T02:47:39;97787.41;;;7.05;100.00
54910;BME280;63189;51.240;9.964;2023-02-22T02:50:17;97788.28;;;7.06;100.00
54910;BME280;63189;51.240;9.964;2023-02-22T02:52:45;97784.81;;;7.05;100.00
54910;BME280;63189;51.240;9.964;2023-02-22T02:55:12;97792.66;;;7.02;100.00
54910;BME280;63189;51.240;9.964;2023-02-22T02:57:38;97781.41;;;7.03;100.00
54910;BME280;63189;51.240;9.964;2023-02-22T03:00:05;97789.16;;;7.05;100.00
54910;BME280;63189;51.240;9.964;2023-02-22T03:10:54;97782.16;;;7.08;100.00
54910;BME280;63189;51.240;9.964;2023-02-22T03:13:34;97766.69;;;7.05;100.00
54910;BME280;63189;51.240;9.964;2023-02-22T03:16:31;97764.94;;;7.06;100.00
54910;BME280;63189;51.240;9.964;2023-02-22T03:21:59;97764.97;;;7.04;100.00
54910;BME280;63189;51.240;9.964;2023-02-22T03:27:06;97763.19;;;7.06;100.00
54910;BME280;63189;51.240;9.964;2023-02-22T03:29:37;97761.50;;;7.05;100.00
54910;BME280;63189;51.240;9.964;2023-02-22T03:32:07;97756.25;;;7.08;100.00
54910;BME280;63189;51.240;9.964;2023-02-22T03:34:37;97757.16;;;7.06;100.00
54910;BME280;63189;51.240;9.964;2023-02-22T03:37:11;97759.75;;;7.06;100.00
54910;BME280;63189;51.240;9.964;2023-02-22T03:39:38;97759.78;;;7.04;100.00
54910;BME280;63189;51.240;9.964;2023-02-22T03:42:27;97756.38;;;7.02;100.00
54910;BME280;63189;51.240;9.964;2023-02-22T03:44:57;97758.09;;;7.03;100.00
54910;BME280;63189;51.240;9.964;2023-02-22T03:47:30;97753.78;;;7.02;100.00
54910;BME280;63189;51.240;9.964;2023-02-22T03:50:04;97757.22;;;7.03;100.00
54910;BME280;63189;51.240;9.964;2023-02-22T03:52:33;97755.56;;;7.00;100.00
54910;BME280;63189;51.240;9.964;2023-02-22T03:54:59;97752.13;;;7.00;100.00
54910;BME280;63189;51.240;9.964;2023-02-22T03:57:27;97751.28;;;6.99;100.00
54910;BME280;63189;51.240;9.964;2023-02-22T03:59:54;97756.44;;;6.99;100.00
54910;BME280;63189;51.240;9.964;2023-02-22T04:02:20;97754.72;;;6.98;100.00
54910;BME280;63189;51.240;9.964;2023-02-22T04:04:47;97758.19;;;6.97;100.00
54910;BME280;63189;51.240;9.964;2023-02-22T04:07:13;97758.19;;;6.97;100.00
54910;BME280;63189;51.240;9.964;2023-02-22T04:09:38;97763.44;;;6.94;100.00
54910;BME280;63189;51.240;9.964;2023-02-22T04:12:04;97752.19;;;6.95;100.00
54910;BME280;63189;51.240;9.964;2023-02-22T04:14:29;97756.50;;;6.96;100.00
54910;BME280;63189;51.240;9.964;2023-02-22T04:16:54;97753.91;;;6.96;100.00
54910;BME280;63189;51.240;9.964;2023-02-22T04:19:21;97745.31;;;6.94;100.00
54910;BME280;63189;51.240;9.964;2023-02-22T04:21:46;97750.41;;;6.97;100.00
54910;BME280;63189;51.240;9.964;2023-02-22T04:24:12;97747.81;;;6.97;100.00
54910;BME280;63189;51.240;9.964;2023-02-22T04:26:37;97746.16;;;6.94;100.00
54910;BME280;63189;51.240;9.964;2023-02-22T04:29:03;97753.88;;;6.98;100.00
54910;BME280;63189;51.240;9.964;2023-02-22T04:31:29;97737.53;;;6.94;100.00
54910;BME280;63189;51.240;9.964;2023-02-22T04:33:55;97744.41;;;6.95;100.00
54910;BME280;63189;51.240;9.964;2023-02-22T04:36:20;97744.44;;;6.93;100.00
54910;BME280;63189;51.240;9.964;2023-02-22T04:38:46;97741.78;;;6.97;100.00
54910;BME280;63189;51.240;9.964;2023-02-22T04:41:12;97748.69;;;6.98;100.00
54910;BME280;63189;51.240;9.964;2023-02-22T04:43:37;97738.31;;;6.98;100.00
54910;BME280;63189;51.240;9.964;2023-02-22T04:46:03;97740.97;;;6.94;100.00
54910;BME280;63189;51.240;9.964;2023-02-22T04:48:28;97738.31;;;6.98;100.00
54910;BME280;63189;51.240;9.964;2023-02-22T04:50:56;97734.88;;;6.97;100.00
54910;BME280;63189;51.240;9.964;2023-02-22T04:53:21;97722.91;;;6.91;100.00
54910;BME280;63189;51.240;9.964;2023-02-22T04:55:47;97743.50;;;6.98;100.00
54910;BME280;63189;51.240;9.964;2023-02-22T04:58:12;97734.88;;;6.99;100.00
54910;BME280;63189;51.240;9.964;2023-02-22T05:00:37;97740.88;;;7.01;100.00
54910;BME280;63189;51.240;9.964;2023-02-22T05:03:03;97735.72;;;6.99;100.00
54910;BME280;63189;51.240;9.964;2023-02-22T05:05:28;97731.38;;;7.00;100.00
54910;BME280;63189;51.240;9.964;2023-02-22T05:07:54;97727.16;;;6.94;100.00
54910;BME280;63189;51.240;9.964;2023-02-22T05:10:19;97730.53;;;6.99;100.00
54910;BME280;63189;51.240;9.964;2023-02-22T05:12:45;97727.91;;;7.01;100.00
54910;BME280;63189;51.240;9.964;2023-02-22T05:15:13;97724.53;;;6.95;100.00
54910;BME280;63189;51.240;9.964;2023-02-22T05:17:39;97726.25;;;6.97;100.00
54910;BME280;63189;51.240;9.964;2023-02-22T05:20:05;97727.09;;;6.97;100.00
54910;BME280;63189;51.240;9.964;2023-02-22T05:22:33;97719.34;;;6.95;100.00
54910;BME280;63189;51.240;9.964;2023-02-22T05:24:58;97725.34;;;6.98;100.00
54910;BME280;63189;51.240;9.964;2023-02-22T05:27:23;97719.31;;;6.99;100.00
54910;BME280;63189;51.240;9.964;2023-02-22T05:29:55;97724.50;;;6.99;100.00
54910;BME280;63189;51.240;9.964;2023-02-22T05:32:26;97720.16;;;6.98;100.00
54910;BME280;63189;51.240;9.964;2023-02-22T05:34:52;97727.09;;;6.97;100.00
54910;BME280;63189;51.240;9.964;2023-02-22T05:37:17;97721.16;;;6.92;100.00
54910;BME280;63189;51.240;9.964;2023-02-22T05:39:42;97710.84;;;6.90;100.00
54910;BME280;63189;51.240;9.964;2023-02-22T05:42:08;97715.09;;;6.93;100.00
54910;BME280;63189;51.240;9.964;2023-02-22T05:44:33;97706.44;;;6.94;100.00
54910;BME280;63189;51.240;9.964;2023-02-22T05:46:58;97715.09;;;6.93;100.00
54910;BME280;63189;51.240;9.964;2023-02-22T05:49:24;97707.28;;;6.94;100.00
54910;BME280;63189;51.240;9.964;2023-02-22T05:51:49;97706.47;;;6.92;100.00
54910;BME280;63189;51.240;9.964;2023-02-22T05:54:15;97705.50;;;6.97;100.00
54910;BME280;63189;51.240;9.964;2023-02-22T05:56:40;97701.28;;;6.92;100.00
54910;BME280;63189;51.240;9.964;2023-02-22T05:59:05;97706.47;;;6.92;100.00
54910;BME280;63189;51.240;9.964;2023-02-22T06:01:30;97698.69;;;6.92;100.00
54910;BME280;63189;51.240;9.964;2023-02-22T06:03:56;97709.91;;;6.93;100.00
54910;BME280;63189;51.240;9.964;2023-02-22T06:06:22;97708.19;;;6.92;100.00
54910;BME280;63189;51.240;9.964;2023-02-22T06:08:47;97707.31;;;6.93;100.00
54910;BME280;63189;51.240;9.964;2023-02-22T06:11:12;97703.91;;;6.91;100.00
54910;BME280;63189;51.240;9.964;2023-02-22T06:13:38;97700.41;;;6.93;100.00
54910;BME280;63189;51.240;9.964;2023-02-22T06:16:04;97705.66;;;6.90;100.00
54910;BME280;63189;51.240;9.964;2023-02-22T06:18:30;97701.41;;;6.85;100.00
54910;BME280;63189;51.240;9.964;2023-02-22T06:20:56;97709.19;;;6.85;100.00
54910;BME280;63189;51.240;9.964;2023-02-22T06:23:23;97714.38;;;6.85;100.00
54910;BME280;63189;51.240;9.964;2023-02-22T06:25:48;97709.25;;;6.82;100.00
54910;BME280;63189;51.240;9.964;2023-02-22T06:28:13;97714.47;;;6.80;100.00
54910;BME280;63189;51.240;9.964;2023-02-22T06:30:40;97709.31;;;6.80;100.00
54910;BME280;63189;51.240;9.964;2023-02-22T06:33:07;97705.03;;;6.78;100.00
54910;BME280;63189;51.240;9.964;2023-02-22T06:35:32;97721.44;;;6.77;100.00
54910;BME280;63189;51.240;9.964;2023-02-22T06:37:58;97721.44;;;6.78;100.00
54910;BME280;63189;51.240;9.964;2023-02-22T06:40:23;97722.28;;;6.79;100.00
54910;BME280;63189;51.240;9.964;2023-02-22T06:42:55;97721.38;;;6.81;100.00
54910;BME280;63189;51.240;9.964;2023-02-22T06:45:21;97722.22;;;6.82;100.00
54910;BME280;63189;51.240;9.964;2023-02-22T06:47:46;97722.25;;;6.80;100.00
54910;BME280;63189;51.240;9.964;2023-02-22T06:50:23;97721.25;;;6.86;100.00
54910;BME280;63189;51.240;9.964;2023-02-22T06:52:49;97725.56;;;6.87;100.00
54910;BME280;63189;51.240;9.964;2023-02-22T06:55:26;97724.72;;;6.86;100.00
54910;BME280;63189;51.240;9.964;2023-02-22T06:57:52;97729.03;;;6.86;100.00
54910;BME280;63189;51.240;9.964;2023-02-22T07:00:19;97730.75;;;6.87;100.00
54910;BME280;63189;51.240;9.964;2023-02-22T07:02:45;97729.84;;;6.89;100.00
54910;BME280;63189;51.240;9.964;2023-02-22T07:05:16;97725.53;;;6.90;100.00
54910;BME280;63189;51.240;9.964;2023-02-22T07:07:42;97739.31;;;6.92;100.00
54910;BME280;63189;51.240;9.964;2023-02-22T07:10:21;97731.59;;;6.87;100.00
54910;BME280;63189;51.240;9.964;2023-02-22T07:12:47;97738.53;;;6.87;100.00
54910;BME280;63189;51.240;9.964;2023-02-22T07:15:13;97737.63;;;6.89;100.00
54910;BME280;63189;51.240;9.964;2023-02-22T07:17:39;97737.59;;;6.91;100.00
54910;BME280;63189;51.240;9.964;2023-02-22T07:20:06;97732.47;;;6.86;100.00
54910;BME280;63189;51.240;9.964;2023-02-22T07:22:31;97726.47;;;6.84;100.00
54910;BME280;63189;51.240;9.964;2023-02-22T07:24:57;97729.88;;;6.88;100.00
54910;BME280;63189;51.240;9.964;2023-02-22T07:27:22;97735.06;;;6.86;100.00
54910;BME280;63189;51.240;9.964;2023-02-22T07:29:47;97726.41;;;6.87;100.00
54910;BME280;63189;51.240;9.964;2023-02-22T07:32:13;97725.53;;;6.90;100.00
54910;BME280;63189;51.240;9.964;2023-02-22T07:34:40;97742.78;;;6.91;100.00
54910;BME280;63189;51.240;9.964;2023-02-22T07:37:05;97738.56;;;6.85;100.00
54910;BME280;63189;51.240;9.964;2023-02-22T07:39:31;97735.94;;;6.87;100.00
54910;BME280;63189;51.240;9.964;2023-02-22T07:41:57;97738.63;;;6.82;100.00
54910;BME280;63189;51.240;9.964;2023-02-22T07:44:23;97736.88;;;6.83;100.00
54910;BME280;63189;51.240;9.964;2023-02-22T07:46:48;97740.38;;;6.82;100.00
54910;BME280;63189;51.240;9.964;2023-02-22T07:49:14;97739.53;;;6.80;100.00
54910;BME280;63189;51.240;9.964;2023-02-22T07:51:40;97738.72;;;6.76;100.00
54910;BME280;63189;51.240;9.964;2023-02-22T07:54:05;97735.34;;;6.73;100.00
54910;BME280;63189;51.240;9.964;2023-02-22T07:56:30;97743.13;;;6.73;100.00
54910;BME280;63189;51.240;9.964;2023-02-22T07:58:55;97736.34;;;6.65;100.00
54910;BME280;63189;51.240;9.964;2023-02-22T08:01:21;97745.75;;;6.71;100.00
54910;BME280;63189;51.240;9.964;2023-02-22T08:03:47;97742.34;;;6.69;100.00
54910;BME280;63189;51.240;9.964;2023-02-22T08:06:12;97736.22;;;6.72;100.00
54910;BME280;63189;51.240;9.964;2023-02-22T08:08:38;97734.53;;;6.71;100.00
54910;BME280;63189;51.240;9.964;2023-02-22T08:11:04;97739.66;;;6.74;100.00
54910;BME280;63189;51.240;9.964;2023-02-22T08:13:29;97730.16;;;6.73;100.00
54910;BME280;63189;51.240;9.964;2023-02-22T08:15:55;97728.38;;;6.75;100.00
54910;BME280;63189;51.240;9.964;2023-02-22T08:18:21;97726.69;;;6.74;100.00
54910;BME280;63189;51.240;9.964;2023-02-22T08:20:49;97736.94;;;6.80;100.00
54910;BME280;63189;51.240;9.964;2023-02-22T08:23:16;97729.09;;;6.83;100.00
54910;BME280;63189;51.240;9.964;2023-02-22T08:25:42;97727.34;;;6.85;100.00
54910;BME280;63189;51.240;9.964;2023-02-22T08:28:16;97731.66;;;6.84;100.00
54910;BME280;63189;51.240;9.964;2023-02-22T08:30:44;97729.97;;;6.83;100.00
54910;BME280;63189;51.240;9.964;2023-02-22T08:33:11;97723.00;;;6.85;100.00
54910;BME280;63189;51.240;9.964;2023-02-22T08:35:38;97713.53;;;6.84;100.00
54910;BME280;63189;51.240;9.964;2023-02-22T08:38:05;97721.22;;;6.87;100.00
54910;BME280;63189;51.240;9.964;2023-02-22T08:40:33;97715.16;;;6.90;100.00
54910;BME280;63189;51.240;9.964;2023-02-22T08:42:59;97717.66;;;6.94;100.00
54910;BME280;63189;51.240;9.964;2023-02-22T08:45:26;97715.03;;;6.96;100.00
54910;BME280;63189;51.240;9.964;2023-02-22T08:47:51;97719.31;;;6.97;100.00
54910;BME280;63189;51.240;9.964;2023-02-22T08:50:28;97716.72;;;6.97;100.00
54910;BME280;63189;51.240;9.964;2023-02-22T08:52:56;97712.38;;;6.98;100.00
54910;BME280;63189;51.240;9.964;2023-02-22T08:55:24;97705.47;;;7.00;100.00
54910;BME280;63189;51.240;9.964;2023-02-22T08:57:50;97705.31;;;7.06;100.00
54910;BME280;63189;51.240;9.964;2023-02-22T09:00:17;97709.59;;;7.08;100.00
54910;BME280;63189;51.240;9.964;2023-02-22T09:02:43;97707.84;;;7.10;100.00
54910;BME280;63189;51.240;9.964;2023-02-22T09:05:08;97707.75;;;7.13;100.00
54910;BME280;63189;51.240;9.964;2023-02-22T09:07:34;97704.28;;;7.14;100.00
54910;BME280;63189;51.240;9.964;2023-02-22T09:09:59;97700.81;;;7.15;100.00
54910;BME280;63189;51.240;9.964;2023-02-22T09:12:25;97692.09;;;7.19;100.00
54910;BME280;63189;51.240;9.964;2023-02-22T09:14:50;97699.00;;;7.19;100.00
54910;BME280;63189;51.240;9.964;2023-02-22T09:17:15;97701.47;;;7.25;100.00
54910;BME280;63189;51.240;9.964;2023-02-22T09:19:40;97696.25;;;7.27;100.00
54910;BME280;63189;51.240;9.964;2023-02-22T09:22:06;97696.94;;;7.35;100.00
54910;BME280;63189;51.240;9.964;2023-02-22T09:24:31;97693.41;;;7.37;100.00
54910;BME280;63189;51.240;9.964;2023-02-22T09:26:57;97683.84;;;7.39;100.00
54910;BME280;63189;51.240;9.964;2023-02-22T09:29:25;97689.78;;;7.46;100.00
54910;BME280;63189;51.240;9.964;2023-02-22T09:31:53;97689.69;;;7.49;100.00
54910;BME280;63189;51.240;9.964;2023-02-22T09:34:20;97700.09;;;7.47;100.00
54910;BME280;63189;51.240;9.964;2023-02-22T09:36:52;97683.66;;;7.48;100.00
54910;BME280;63189;51.240;9.964;2023-02-22T09:39:25;97686.22;;;7.50;100.00
54910;BME280;63189;51.240;9.964;2023-02-22T09:42:28;97686.81;;;7.63;100.00
54910;BME280;63189;51.240;9.964;2023-02-22T09:45:29;97664.44;;;7.57;100.00
54910;BME280;63189;51.240;9.964;2023-02-22T09:48:02;97682.09;;;7.78;100.00
54910;BME280;63189;51.240;9.964;2023-02-22T09:50:34;97676.69;;;7.88;100.00
54910;BME280;63189;51.240;9.964;2023-02-22T09:53:04;97672.91;;;8.01;100.00
54910;BME280;63189;51.240;9.964;2023-02-22T09:55:40;97667.81;;;8.30;100.00
54910;BME280;63189;51.240;9.964;2023-02-22T09:58:22;97662.34;;;8.43;100.00
54910;BME280;63189;51.240;9.964;2023-02-22T10:00:54;97658.81;;;8.45;100.00
54910;BME280;63189;51.240;9.964;2023-02-22T10:03:33;97655.00;;;8.58;100.00
54910;BME280;63189;51.240;9.964;2023-02-22T10:06:09;97654.53;;;9.05;100.00
54910;BME280;63189;51.240;9.964;2023-02-22T10:08:36;97643.41;;;9.29;100.00
54910;BME280;63189;51.240;9.964;2023-02-22T10:16:39;97653.28;;;10.00;100.00
54910;BME280;63189;51.240;9.964;2023-02-22T10:22:47;97640.22;;;10.28;100.00
54910;BME280;63189;51.240;9.964;2023-02-22T10:25:24;97637.72;;;10.50;100.00
54910;BME280;63189;51.240;9.964;2023-02-22T10:27:56;97635.03;;;10.77;100.00
54910;BME280;63189;51.240;9.964;2023-02-22T10:30:23;97630.53;;;11.05;100.00
54910;BME280;63189;51.240;9.964;2023-02-22T10:33:19;97634.16;;;11.23;100.00
54910;BME280;63189;51.240;9.964;2023-02-22T10:35:43;97626.47;;;11.42;99.99
54910;BME280;63189;51.240;9.964;2023-02-22T10:38:27;97620.72;;;11.55;100.00
54910;BME280;63189;51.240;9.964;2023-02-22T10:43:36;97612.94;;;11.76;98.90
54910;BME280;63189;51.240;9.964;2023-02-22T10:46:04;97609.00;;;11.88;97.44
54910;BME280;63189;51.240;9.964;2023-02-22T10:48:34;97617.97;;;12.02;97.95
54910;BME280;63189;51.240;9.964;2023-02-22T10:51:04;97618.81;;;12.03;95.29
54910;BME280;63189;51.240;9.964;2023-02-22T10:53:33;97609.75;;;12.11;96.09
54910;BME280;63189;51.240;9.964;2023-02-22T10:56:19;97604.31;;;12.16;95.13
54910;BME280;63189;51.240;9.964;2023-02-22T10:59:02;97614.31;;;12.06;90.31
54910;BME280;63189;51.240;9.964;2023-02-22T11:04:03;97611.69;;;12.06;95.81
54910;BME280;63189;51.240;9.964;2023-02-22T11:06:31;97604.31;;;12.16;96.41
54910;BME280;63189;51.240;9.964;2023-02-22T11:11:37;97594.09;;;12.11;95.54
54910;BME280;63189;51.240;9.964;2023-02-22T11:14:03;97592.44;;;12.09;96.00
54910;BME280;63189;51.240;9.964;2023-02-22T11:19:20;97589.81;;;12.29;98.11
54910;BME280;63189;51.240;9.964;2023-02-22T11:21:48;97593.03;;;12.36;94.17
54910;BME280;63189;51.240;9.964;2023-02-22T11:24:20;97585.25;;;12.34;93.83
54910;BME280;63189;51.240;9.964;2023-02-22T11:26:52;97588.38;;;12.42;94.41
54910;BME280;63189;51.240;9.964;2023-02-22T11:29:19;97580.47;;;12.44;91.91
54910;BME280;63189;51.240;9.964;2023-02-22T11:31:45;97578.56;;;12.48;94.13
54910;BME280;63189;51.240;9.964;2023-02-22T11:34:40;97570.31;;;12.57;94.86
54910;BME280;63189;51.240;9.964;2023-02-22T11:39:44;97560.78;;;12.56;90.67
54910;BME280;63189;51.240;9.964;2023-02-22T11:42:25;97558.56;;;12.47;91.22
54910;BME280;63189;51.240;9.964;2023-02-22T11:45:20;97562.69;;;12.52;94.10
54910;BME280;63189;51.240;9.964;2023-02-22T11:48:01;97554.09;;;12.49;90.99
54910;BME280;63189;51.240;9.964;2023-02-22T11:50:30;97557.78;;;12.45;91.91
54910;BME280;63189;51.240;9.964;2023-02-22T12:09:52;97537.75;;;12.64;91.18
54910;BME280;63189;51.240;9.964;2023-02-22T12:15:04;97537.94;;;12.78;91.08
54910;BME280;63189;51.240;9.964;2023-02-22T12:20:22;97530.94;;;12.97;87.72
54910;BME280;63189;51.240;9.964;2023-02-22T12:25:49;97524.53;;;13.05;90.07
54910;BME280;63189;51.240;9.964;2023-02-22T12:28:26;97523.44;;;13.09;86.30
54910;BME280;63189;51.240;9.964;2023-02-22T12:31:04;97532.72;;;13.16;88.70
54910;BME280;63189;51.240;9.964;2023-02-22T12:33:39;97533.28;;;13.22;86.20
54910;BME280;63189;51.240;9.964;2023-02-22T12:36:10;97521.00;;;13.24;86.10
54910;BME280;63189;51.240;9.964;2023-02-22T12:38:43;97522.03;;;13.20;86.39
54910;BME280;63189;51.240;9.964;2023-02-22T12:41:29;97524.72;;;13.19;86.64
54910;BME280;63189;51.240;9.964;2023-02-22T12:44:06;97520.53;;;13.15;84.08
54910;BME280;63189;51.240;9.964;2023-02-22T12:46:39;97520.41;;;13.18;84.08
54910;BME280;63189;51.240;9.964;2023-02-22T12:49:35;97515.44;;;13.12;83.40
54910;BME280;63189;51.240;9.964;2023-02-22T12:55:08;97522.13;;;13.19;83.81
54910;BME280;63189;51.240;9.964;2023-02-22T12:57:54;97516.72;;;13.22;84.16
54910;BME280;63189;51.240;9.964;2023-02-22T13:00:42;97506.13;;;13.25;84.32
54910;BME280;63189;51.240;9.964;2023-02-22T13:03:29;97516.69;;;13.23;83.46
54910;BME280;63189;51.240;9.964;2023-02-22T13:06:11;97512.81;;;13.12;81.71
54910;BME280;63189;51.240;9.964;2023-02-22T13:20:06;97502.03;;;13.19;87.02
54910;BME280;63189;51.240;9.964;2023-02-22T13:22:54;97495.13;;;13.17;85.38
54910;BME280;63189;51.240;9.964;2023-02-22T13:25:40;97495.94;;;13.19;83.20
54910;BME280;63189;51.240;9.964;2023-02-22T13:28:19;97499.41;;;13.19;83.05
54910;BME280;63189;51.240;9.964;2023-02-22T13:33:49;97495.06;;;13.18;84.44
54910;BME280;63189;51.240;9.964;2023-02-22T13:39:53;97483.34;;;13.08;81.92
54910;BME280;63189;51.240;9.964;2023-02-22T13:47:48;97481.59;;;12.90;80.93
54910;BME280;63189;51.240;9.964;2023-02-22T13:52:56;97479.69;;;12.93;83.07
54910;BME280;63189;51.240;9.964;2023-02-22T13:55:25;97476.28;;;12.91;84.12
54910;BME280;63189;51.240;9.964;2023-02-22T13:58:05;97479.47;;;12.79;82.35
54910;BME280;63189;51.240;9.964;2023-02-22T14:00:47;97471.00;;;12.74;81.81
54910;BME280;63189;51.240;9.964;2023-02-22T14:08:06;97468.47;;;12.73;81.10
54910;BME280;63189;51.240;9.964;2023-02-22T14:13:19;97465.47;;;12.80;82.20
54910;BME280;63189;51.240;9.964;2023-02-22T14:18:42;97455.50;;;12.69;80.43
54910;BME280;63189;51.240;9.964;2023-02-22T14:21:17;97455.44;;;12.71;80.90
54910;BME280;63189;51.240;9.964;2023-02-22T14:23:52;97465.69;;;12.76;82.18
54910;BME280;63189;51.240;9.964;2023-02-22T14:26:36;97453.53;;;12.75;81.33
54910;BME280;63189;51.240;9.964;2023-02-22T14:36:46;97439.13;;;12.66;81.44
54910;BME280;63189;51.240;9.964;2023-02-22T14:39:22;97445.91;;;12.70;81.70
54910;BME280;63189;51.240;9.964;2023-02-22T14:41:59;97439.91;;;12.68;82.31
54910;BME280;63189;51.240;9.964;2023-02-22T14:44:34;97443.94;;;12.75;83.57
54910;BME280;63189;51.240;9.964;2023-02-22T14:47:03;97446.47;;;12.77;83.34
54910;BME280;63189;51.240;9.964;2023-02-22T14:49:33;97441.09;;;12.80;84.20
54910;BME280;63189;51.240;9.964;2023-02-22T14:52:05;97430.00;;;12.75;82.82
54910;BME280;63189;51.240;9.964;2023-02-22T14:55:04;97432.63;;;12.75;83.43
54910;BME280;63189;51.240;9.964;2023-02-22T15:00:18;97427.66;;;12.68;83.72
54910;BME280;63189;51.240;9.964;2023-02-22T15:02:46;97417.28;;;12.67;84.11
54910;BME280;63189;51.240;9.964;2023-02-22T15:05:15;97430.34;;;12.67;84.23
54910;BME280;63189;51.240;9.964;2023-02-22T15:07:59;97428.66;;;12.66;83.80
54910;BME280;63189;51.240;9.964;2023-02-22T15:13:05;97420.81;;;12.66;84.96
54910;BME280;63189;51.240;9.964;2023-02-22T15:15:41;97425.13;;;12.67;85.86
54910;BME280;63189;51.240;9.964;2023-02-22T15:21:03;97415.81;;;12.61;86.39
54910;BME280;63189;51.240;9.964;2023-02-22T15:23:39;97415.81;;;12.61;85.62
54910;BME280;63189;51.240;9.964;2023-02-22T15:26:16;97408.03;;;12.60;87.15
54910;BME280;63189;51.240;9.964;2023-02-22T15:28:41;97414.25;;;12.57;87.33
54910;BME280;63189;51.240;9.964;2023-02-22T15:31:25;97404.78;;;12.55;86.66
54910;BME280;63189;51.240;9.964;2023-02-22T15:33:51;97400.69;;;12.49;87.88